Skip Navigation Links
NOAA logo - Click to go to the NOAA homepage
NOAA's National Weather Service
Alaska Aviation Weather Unit
  NWS logo - Click to go to the NWS homepage
Left Navbar Graphic     23 AKDT = 07 GMT

   
NOAA is celebrating 200 years of science, service, and stewardship. Visit the NOAA 200th celebration Web site to learn more.
USA.gov is the U.S. Government's official Web portal to all Federal, state and local government Web resources and services.
Facebook
NWS on Facebook

Important Change Regarding the AAWU Web Presence

 

Over the last several months, the AAWU has been working to navigate its webpages to a nationally supported server. Security, as well as other needs, have necessitated the change.  In the process, we have made an effort to enhance the functionality of our website, as well as some of our products. As of June 20, 2017, aawu.arh.noaa.gov will be discontinued. The new AAWU web address is weather.gov/aawu. It is now live and will run in-parallel with the old site until it is discontinued. Please send any feedback or questions regarding the new webpages to nws.ar.aawu.webauthors@noaa.gov.  Thank you for your patience during this time of transition.
AAWU Home :: Display TAF Add Bookmark
METAR PAOO 240156Z AUTO 10004KT 10SM -RA OVC016 05/03 A2972 RMK AO2 CIG
     010V021 SLP074 P0002 T00500033=

PAOO 240212Z AUTO 13007KT 10SM -RA BKN014 BKN019 OVC024 06/03
     A2971 RMK AO2 P0000=

SPECI PAOO 240220Z AUTO 14008KT 10SM -RA OVC016 06/03 A2970 RMK AO2
     P0001=

SPECI PAOO 240251Z AUTO 14006KT 10SM -RA BKN014 OVC020 06/03 A2970 RMK
     AO2 P0001=

METAR PAOO 240256Z AUTO 14006KT 10SM -RA OVC016 06/03 A2970 RMK AO2
     SLP067 P0001 60004 T00560033 56017=

METAR PAOO 240356Z AUTO 18007KT 10SM -RA OVC015 05/03 A2967 RMK AO2
     SLP059 P0001 T00500028=

SPECI PAOO 240423Z AUTO 18007KT 10SM -RA BKN013 OVC018 06/03 A2967 RMK
     AO2 P0000=

PAOO 240454Z AUTO 19008KT 10SM -RA SCT011 OVC018 05/03 A2965 RMK
     AO2 P0000=

METAR PAOO 240456Z AUTO 20007KT 10SM -RA FEW011 OVC018 05/03 A2965 RMK
     AO2 SLP052 P0000 T00500028=

SPECI PAOO 240512Z AUTO 21008KT 10SM -RA BKN011 OVC018 05/03 A2965 RMK
     AO2 P0000=

METAR PAOO 240556Z AUTO 18008KT 10SM -RA SCT010 OVC036 04/03 A2964
 RMK AO2 SLP048 P0000 60005 T00440028 10056 20044 56012=

SPECI PAOO 240615Z AUTO 22007KT 10SM -RA BKN010 BKN029 OVC036 04/03
     A2963 RMK AO2 P0000=


NOAA's National Weather Service
Alaska Aviation Weather Unit
6930 Sand Lake Road
Anchorage, AK 99502-1845
Disclaimer
Credits
Glossary
Privacy Policy
About Us
Career Opportunities
Contact AAWU Internet Services Site last modified: April, 17th 2012